Heislerville, New Jersey
Current Conditions -  °F | °C
As of 10:54 AM on Monday 24 Nov 2014 (Local Time) from KMIV Reporting Station
Clear Clear  
Wind Chill: 69°   Ceiling: Unl
Heat Index: 69°   Visibility: 10mi
Dew Point: 61°   Wind: 9mph
Humidity: 75%   Direction: 220°SW
Pressure: 29.7"   Gusts: 20mph
Location:  39.22°N, 74.99°W
Report Text: KMIV 241554Z AUTO 22008G17KT 170V270 10SM CLR 21/16 A2970 RMK AO2 SLP056 T02060161
Loading
Personal Weather Stations






























Interactive Weather Map New forecast layout! Learn more

10-Day Weather Forecast

Advertisements
Track Severe Weather on mobile